Terminal Aerodrome Forecast
Issued by NWS

Home | Current Version | Previous Version | Text Only | Print | Product List | Glossary On
Versions: 1 2 3 4 5 6 7 8 9 10 11 12 13
000
FTUS42 KMLB 270500
TAFTIX
TAF
KTIX 270537Z 2706/2806 05010KT P6SM VCSH FEW035 BKN050
      TEMPO 2706/2708 5SM SHRA BKN025 OVC050
     FM270900 03007KT P6SM SCT035 BKN060
     FM271500 03013G20KT P6SM SCT040 SCT120
     FM272300 05007KT P6SM SCT040
      AMD NOT SKED 2706/2711=

USA.gov is the U.S. government's official web portal to all federal, state and local government web resources and services.